Time;durP1;ratioP1;P1;durP2;ratioP2;P2;SDS_P1;SDS_P2;PMS_P1;PMS_P2;Temp;Humidity;BMP_temperature;BMP_pressure;BME280_temperature;BME280_humidity;BME280_pressure;Samples;Min_cycle;Max_cycle;Signal;HPM_P1;HPM_P2
2022/01/14 00:00:44;;;;;;;105.13;64.75;;;-1.80;99.90;;;;;;5022595;28;20390;-71
2022/01/14 00:03:12;;;;;;;99.03;65.43;;;-1.80;99.90;;;;;;5022061;28;20037;-70
2022/01/14 00:05:37;;;;;;;102.32;66.63;;;-1.80;99.90;;;;;;5004423;28;20025;-71
2022/01/14 00:08:04;;;;;;;107.70;68.78;;;-1.80;99.90;;;;;;5020865;28;20036;-71
2022/01/14 00:10:31;;;;;;;105.28;67.45;;;-1.80;99.90;;;;;;5025129;28;20402;-71
2022/01/14 00:13:06;;;;;;;114.47;74.03;;;-1.90;99.90;;;;;;5002699;28;20030;-71
2022/01/14 00:15:34;;;;;;;128.48;78.95;;;-1.80;99.90;;;;;;5024047;28;20450;-71
2022/01/14 00:18:00;;;;;;;134.10;80.70;;;-1.80;99.90;;;;;;5020589;28;20076;-71
2022/01/14 00:20:26;;;;;;;149.60;89.18;;;-1.80;99.90;;;;;;5023010;28;20093;-71
2022/01/14 00:22:51;;;;;;;133.70;83.72;;;-1.80;99.90;;;;;;5024037;28;20104;-71
2022/01/14 00:33:27;;;;;;;112.82;68.45;;;-1.80;99.90;;;;;;5019153;28;20605;-71
2022/01/14 00:35:52;;;;;;;121.05;71.68;;;-1.90;99.90;;;;;;5012292;28;20112;-71
2022/01/14 00:38:18;;;;;;;110.43;69.28;;;-1.90;99.90;;;;;;5010857;28;20320;-71
2022/01/14 00:40:44;;;;;;;100.38;66.35;;;-1.90;99.90;;;;;;5021718;28;20025;-71
2022/01/14 00:43:09;;;;;;;115.03;68.90;;;-2.00;99.90;;;;;;5025631;28;20030;-71
2022/01/14 00:45:35;;;;;;;106.68;67.90;;;-2.00;99.90;;;;;;5008292;28;20029;-72
2022/01/14 00:48:04;;;;;;;102.32;64.93;;;-2.10;99.90;;;;;;5024662;28;20045;-71
2022/01/14 00:50:30;;;;;;;133.02;76.35;;;-2.00;99.90;;;;;;5025764;28;20036;-71
2022/01/14 00:52:56;;;;;;;124.80;73.93;;;-2.10;99.90;;;;;;5022480;28;20025;-71
2022/01/14 00:55:28;;;;;;;110.63;67.93;;;-2.10;99.90;;;;;;5018669;28;20021;-71
2022/01/14 01:00:29;;;;;;;97.07;63.70;;;-2.10;99.90;;;;;;5025985;28;20100;-72
2022/01/14 01:02:55;;;;;;;112.72;69.38;;;-2.10;99.90;;;;;;5016742;28;20018;-72
2022/01/14 01:05:21;;;;;;;102.72;66.68;;;-2.20;99.90;;;;;;5025795;28;20021;-72
2022/01/14 01:08:12;;;;;;;108.25;67.35;;;-2.20;99.90;;;;;;5023652;28;20065;-72
2022/01/14 01:10:34;;;;;;;96.18;63.08;;;-2.20;99.90;;;;;;5016111;28;20399;-72
2022/01/14 01:13:13;;;;;;;100.75;61.75;;;-2.20;99.90;;;;;;5016860;28;20029;-70
2022/01/14 01:15:38;;;;;;;104.95;63.50;;;-2.20;99.90;;;;;;5013874;28;20018;-70
2022/01/14 01:18:04;;;;;;;98.63;62.97;;;-2.20;99.90;;;;;;5013983;28;20076;-72
2022/01/14 01:20:29;;;;;;;106.55;63.30;;;-2.30;99.90;;;;;;5015719;28;20050;-71
2022/01/14 01:22:55;;;;;;;113.95;70.00;;;-2.20;99.90;;;;;;5028752;28;20072;-71
2022/01/14 01:25:24;;;;;;;115.97;66.80;;;-2.30;99.90;;;;;;5004143;28;20033;-71
2022/01/14 01:27:53;;;;;;;103.20;62.92;;;-2.30;99.90;;;;;;5013690;28;20026;-71
2022/01/14 01:32:53;;;;;;;88.13;58.28;;;-2.30;99.90;;;;;;5024789;28;20030;-71
2022/01/14 01:35:20;;;;;;;99.28;62.25;;;-2.40;99.90;;;;;;4999529;28;20032;-71
2022/01/14 01:37:45;;;;;;;99.45;61.13;;;-2.40;99.90;;;;;;5025316;28;20029;-71
2022/01/14 01:40:14;;;;;;;88.10;57.70;;;-2.40;99.90;;;;;;5022417;28;20151;-71
2022/01/14 01:42:41;;;;;;;104.18;61.78;;;-2.40;99.90;;;;;;5024835;28;20013;-71
2022/01/14 01:45:10;;;;;;;106.30;48.38;;;-2.40;99.90;;;;;;5024745;28;20053;-71
2022/01/14 01:47:37;;;;;;;99.03;60.75;;;-2.40;99.90;;;;;;5007241;28;20048;-71
2022/01/14 01:50:11;;;;;;;105.47;64.30;;;-2.50;99.90;;;;;;5023615;28;20108;-70
2022/01/14 01:52:37;;;;;;;191.02;93.40;;;-2.50;99.90;;;;;;5024466;28;20038;-71
2022/01/14 01:55:04;;;;;;;392.60;134.52;;;-2.50;99.90;;;;;;5022905;28;20116;-71
2022/01/14 01:57:29;;;;;;;164.73;83.18;;;-2.60;99.90;;;;;;5024598;28;20017;-71
2022/01/14 01:59:55;;;;;;;110.78;68.03;;;-2.60;99.90;;;;;;5016324;28;20037;-71
2022/01/14 02:02:20;;;;;;;159.60;84.72;;;-2.50;99.90;;;;;;5007453;28;20025;-71
2022/01/14 02:04:46;;;;;;;189.73;96.07;;;-2.60;99.90;;;;;;5021014;28;20033;-71
2022/01/14 02:07:11;;;;;;;146.05;81.95;;;-2.60;99.90;;;;;;5023126;28;20076;-71
2022/01/14 02:09:37;;;;;;;102.50;67.93;;;-2.70;99.90;;;;;;5012825;28;20026;-71
2022/01/14 02:12:08;;;;;;;85.88;59.65;;;-2.80;99.90;;;;;;5025509;28;20029;-71
2022/01/14 02:22:08;;;;;;;242.48;80.45;;;-2.80;99.90;;;;;;5018843;28;20030;-70
2022/01/14 02:22:46;;;;;;;380.52;93.32;;;-2.80;99.90;;;;;;5012423;28;20029;-70
2022/01/14 02:25:14;;;;;;;313.75;85.85;;;-2.90;99.90;;;;;;5016575;28;20057;-71
2022/01/14 02:27:40;;;;;;;244.43;75.68;;;-3.00;99.90;;;;;;5012405;28;20022;-70
2022/01/14 02:30:07;;;;;;;261.35;77.50;;;-3.00;99.90;;;;;;5023682;28;20159;-70
2022/01/14 02:32:33;;;;;;;300.83;76.90;;;-2.90;99.90;;;;;;5023145;28;20365;-71
2022/01/14 02:34:58;;;;;;;277.77;74.15;;;-2.90;99.90;;;;;;5022379;28;20041;-71
2022/01/14 02:37:24;;;;;;;257.73;79.50;;;-2.90;99.90;;;;;;5006365;28;20022;-72
2022/01/14 02:39:50;;;;;;;279.98;69.68;;;-2.90;99.90;;;;;;5004367;28;20047;-71
2022/01/14 02:42:15;;;;;;;320.77;81.88;;;-2.80;99.90;;;;;;5024079;28;20057;-72
2022/01/14 02:44:41;;;;;;;316.27;80.93;;;-2.70;99.90;;;;;;5025034;28;20438;-71
2022/01/14 02:47:07;;;;;;;304.98;78.60;;;-2.70;99.90;;;;;;5005170;28;20029;-72
2022/01/14 02:49:36;;;;;;;317.17;87.18;;;-2.70;99.90;;;;;;5004724;28;20368;-71
2022/01/14 02:52:04;;;;;;;173.30;70.68;;;-2.70;99.90;;;;;;5012141;28;20018;-71
2022/01/14 02:54:39;;;;;;;181.80;71.28;;;-2.60;99.90;;;;;;5017322;28;20018;-70
2022/01/14 02:57:07;;;;;;;177.83;79.70;;;-2.60;99.90;;;;;;5002522;28;20030;-71
2022/01/14 02:59:35;;;;;;;142.80;68.00;;;-2.60;99.90;;;;;;5002415;28;20014;-71
2022/01/14 03:02:03;;;;;;;113.57;51.00;;;-2.60;99.90;;;;;;5026924;28;20028;-71
2022/01/14 03:04:32;;;;;;;142.75;76.53;;;-2.50;99.90;;;;;;5020110;28;20052;-71
2022/01/14 03:06:58;;;;;;;148.70;81.18;;;-2.50;99.90;;;;;;5017242;28;20025;-71
2022/01/14 03:09:23;;;;;;;125.88;74.30;;;-2.40;99.90;;;;;;5053931;23;20406;-76
2022/01/14 03:11:57;;;;;;;98.57;64.55;;;-2.30;99.90;;;;;;5043481;28;20025;-76
2022/01/14 03:14:24;;;;;;;135.50;78.00;;;-2.20;99.90;;;;;;5042404;28;20025;-76
2022/01/14 03:16:51;;;;;;;145.50;79.55;;;-2.10;99.90;;;;;;5042367;28;20043;-76
2022/01/14 03:19:21;;;;;;;122.40;71.35;;;-2.10;99.90;;;;;;5018767;28;20425;-75
2022/01/14 03:21:49;;;;;;;109.43;68.80;;;-2.10;99.90;;;;;;5022629;28;20032;-76
2022/01/14 03:25:37;;;;;;;109.68;51.75;;;-2.00;99.90;;;;;;5043442;28;20021;-75
2022/01/14 03:27:06;;;;;;;116.63;68.90;;;-1.90;99.90;;;;;;5022412;28;20014;-78
2022/01/14 03:29:32;;;;;;;117.03;68.93;;;-1.90;99.90;;;;;;5019167;28;20514;-77
2022/01/14 03:31:57;;;;;;;114.47;68.78;;;-1.90;99.90;;;;;;5013317;28;20048;-76
2022/01/14 03:34:23;;;;;;;103.22;65.07;;;-1.80;99.90;;;;;;5011087;28;20057;-76
2022/01/14 03:36:49;;;;;;;98.18;60.97;;;-1.80;99.90;;;;;;5011385;28;20125;-76
2022/01/14 03:39:16;;;;;;;108.30;65.30;;;-1.90;99.90;;;;;;5012414;28;20422;-78
2022/01/14 03:41:41;;;;;;;97.50;60.38;;;-1.70;99.90;;;;;;5013893;28;20053;-78
2022/01/14 03:44:07;;;;;;;92.25;59.33;;;-1.70;99.90;;;;;;5015677;28;20038;-78
2022/01/14 03:46:32;;;;;;;107.30;66.50;;;-1.60;99.90;;;;;;5015248;28;20097;-78
2022/01/14 03:48:58;;;;;;;104.78;62.47;;;-1.60;99.90;;;;;;5015137;28;20026;-77
2022/01/14 03:51:24;;;;;;;129.35;69.25;;;-1.60;99.90;;;;;;5013629;28;20026;-77
2022/01/14 03:53:50;;;;;;;124.32;67.28;;;-1.60;99.90;;;;;;5012698;28;20034;-77
2022/01/14 03:56:16;;;;;;;153.20;79.15;;;-1.60;99.90;;;;;;5012707;28;20045;-78
2022/01/14 03:58:43;;;;;;;151.32;78.78;;;-1.70;99.90;;;;;;5012372;28;20034;-79
2022/01/14 04:01:10;;;;;;;126.75;72.30;;;-1.60;99.90;;;;;;5013151;28;20061;-77
2022/01/14 04:03:35;;;;;;;127.60;73.03;;;-1.70;99.90;;;;;;5014397;28;20025;-78
2022/01/14 04:06:02;;;;;;;116.68;67.22;;;-1.60;99.90;;;;;;5017036;28;20535;-77
2022/01/14 04:08:27;;;;;;;136.20;72.13;;;-1.60;99.90;;;;;;5017986;28;20033;-78
2022/01/14 04:10:54;;;;;;;151.63;76.63;;;-1.50;99.90;;;;;;5016501;28;20033;-78
2022/01/14 04:13:24;;;;;;;259.17;102.47;;;-1.60;99.90;;;;;;5015466;28;20033;-76
2022/01/14 04:15:50;;;;;;;132.77;74.45;;;-1.70;99.90;;;;;;5015132;28;20500;-77
2022/01/14 04:18:20;;;;;;;207.38;89.45;;;-1.70;99.90;;;;;;5015320;28;20040;-77
2022/01/14 04:20:48;;;;;;;260.48;102.75;;;-1.60;99.90;;;;;;5014139;28;20022;-77
2022/01/14 04:23:15;;;;;;;216.68;93.18;;;-1.70;99.90;;;;;;5015923;28;20026;-77
2022/01/14 04:25:41;;;;;;;140.65;73.15;;;-1.70;99.90;;;;;;5019095;28;20030;-78
2022/01/14 04:28:08;;;;;;;163.82;80.10;;;-1.70;99.90;;;;;;5020103;28;20112;-77
2022/01/14 04:30:34;;;;;;;139.68;72.47;;;-1.70;99.90;;;;;;5020148;28;20501;-77
2022/01/14 04:33:01;;;;;;;210.15;87.57;;;-1.70;99.90;;;;;;5017774;28;20030;-76
2022/01/14 04:35:26;;;;;;;149.88;74.80;;;-1.70;99.90;;;;;;5019827;28;20018;-76
2022/01/14 04:37:53;;;;;;;142.63;72.30;;;-1.70;99.90;;;;;;5014586;28;20022;-78
2022/01/14 04:40:18;;;;;;;151.13;76.00;;;-1.60;99.90;;;;;;5017901;28;20045;-78
2022/01/14 04:42:44;;;;;;;221.82;92.93;;;-1.60;99.90;;;;;;5020832;28;20472;-78
2022/01/14 04:45:12;;;;;;;209.82;92.00;;;-1.70;99.90;;;;;;5023723;28;20034;-78
2022/01/14 04:47:44;;;;;;;227.82;94.78;;;-1.70;99.90;;;;;;5023817;28;20026;-78
2022/01/14 04:50:14;;;;;;;176.73;81.47;;;-1.70;99.90;;;;;;5014473;28;20037;-74
2022/01/14 04:52:42;;;;;;;240.30;93.90;;;-1.70;99.90;;;;;;5013401;28;20041;-76
2022/01/14 04:55:09;;;;;;;352.50;116.95;;;-1.70;99.90;;;;;;5014402;28;20499;-75
2022/01/14 04:57:35;;;;;;;383.65;121.68;;;-1.70;99.90;;;;;;5014866;28;20056;-75
2022/01/14 05:00:01;;;;;;;412.60;121.97;;;-1.60;99.90;;;;;;5014438;28;20057;-75
2022/01/14 05:02:27;;;;;;;312.55;111.10;;;-1.70;99.90;;;;;;5014303;28;20026;-76
2022/01/14 05:04:55;;;;;;;299.95;110.53;;;-1.70;99.90;;;;;;5013153;28;20022;-76
2022/01/14 05:07:25;;;;;;;529.97;142.10;;;-1.70;99.90;;;;;;5014248;28;20018;-75
2022/01/14 05:10:16;;;;;;;484.75;134.82;;;-1.80;99.90;;;;;;5014152;28;20036;-77
2022/01/14 05:12:42;;;;;;;273.80;103.03;;;-1.70;99.90;;;;;;5013893;28;20014;-78
2022/01/14 05:15:09;;;;;;;611.33;152.63;;;-1.70;99.90;;;;;;5012134;28;20052;-76
2022/01/14 05:17:34;;;;;;;423.80;129.68;;;-1.70;99.90;;;;;;5013954;28;20428;-75
2022/01/14 05:20:01;;;;;;;208.43;86.82;;;-1.80;99.90;;;;;;5014269;28;20050;-76
2022/01/14 05:22:27;;;;;;;628.17;157.88;;;-1.80;99.90;;;;;;5012395;28;20022;-76
2022/01/14 05:24:53;;;;;;;353.45;109.60;;;-1.80;99.90;;;;;;5013700;28;20041;-76
2022/01/14 05:27:19;;;;;;;411.00;126.95;;;-1.90;99.90;;;;;;5029206;28;20018;-77
2022/01/14 05:29:45;;;;;;;188.02;84.10;;;-1.80;99.90;;;;;;5012892;28;20022;-78
2022/01/14 05:32:13;;;;;;;234.43;102.78;;;-1.80;99.90;;;;;;5015676;28;20378;-79
2022/01/14 05:34:41;;;;;;;784.78;201.95;;;-1.70;99.90;;;;;;5019345;28;20313;-78
2022/01/14 05:37:07;;;;;;;753.35;176.50;;;-1.90;99.90;;;;;;5029468;28;20103;-78
2022/01/14 05:39:33;;;;;;;845.47;166.93;;;-2.00;99.90;;;;;;5026884;28;20446;-77
2022/01/14 05:42:00;;;;;;;870.03;192.00;;;-2.10;99.90;;;;;;5020797;28;20057;-77
2022/01/14 05:44:26;;;;;;;640.40;152.73;;;-2.10;99.90;;;;;;5025662;28;20022;-78
2022/01/14 05:46:54;;;;;;;288.23;93.22;;;-2.00;99.90;;;;;;5012374;28;20403;-77
2022/01/14 05:49:20;;;;;;;271.58;102.03;;;-2.00;99.90;;;;;;5014284;28;20604;-76
2022/01/14 05:51:46;;;;;;;676.30;154.98;;;-1.80;99.90;;;;;;5015120;28;20476;-77
2022/01/14 05:54:13;;;;;;;371.20;113.88;;;-1.90;99.90;;;;;;5015143;28;20033;-77
2022/01/14 05:56:38;;;;;;;725.47;178.10;;;-1.90;99.90;;;;;;5017381;28;20026;-79
2022/01/14 05:59:04;;;;;;;218.25;89.90;;;-1.90;99.90;;;;;;5023916;28;20022;-78
2022/01/14 06:01:30;;;;;;;231.43;96.72;;;-1.80;99.90;;;;;;5021830;28;20037;-78
2022/01/14 06:03:57;;;;;;;565.90;146.15;;;-1.80;99.90;;;;;;5023059;28;20029;-78
2022/01/14 06:06:23;;;;;;;358.73;129.38;;;-1.80;99.90;;;;;;5020158;28;20022;-77
2022/01/14 06:08:49;;;;;;;764.50;265.45;;;-1.70;99.90;;;;;;5019014;28;20527;-75
2022/01/14 06:11:15;;;;;;;277.63;121.43;;;-1.80;99.90;;;;;;5014433;28;20114;-77
2022/01/14 06:13:41;;;;;;;523.90;177.88;;;-1.80;99.90;;;;;;5030133;28;20026;-77
2022/01/14 06:16:06;;;;;;;298.05;112.07;;;-1.80;99.90;;;;;;5014956;28;20030;-78
2022/01/14 06:18:32;;;;;;;333.92;84.88;;;-1.80;99.90;;;;;;5014746;28;20022;-78
2022/01/14 06:20:57;;;;;;;214.02;95.13;;;-1.80;99.90;;;;;;5013664;28;20026;-77
2022/01/14 06:23:23;;;;;;;204.18;93.57;;;-1.80;99.90;;;;;;5016483;28;20412;-77
2022/01/14 06:25:49;;;;;;;551.97;152.75;;;-1.80;99.90;;;;;;5015594;28;20109;-76
2022/01/14 06:28:14;;;;;;;820.13;191.70;;;-1.70;99.90;;;;;;5013520;28;20044;-77
2022/01/14 06:30:40;;;;;;;290.30;104.45;;;-1.80;99.90;;;;;;5011579;28;20038;-76
2022/01/14 06:33:05;;;;;;;361.65;116.40;;;-1.70;99.90;;;;;;5012946;28;20084;-77
2022/01/14 06:35:31;;;;;;;293.60;107.15;;;-1.70;99.90;;;;;;5012646;28;20030;-77
2022/01/14 06:37:57;;;;;;;229.40;94.00;;;-1.70;99.90;;;;;;5012951;28;20026;-76
2022/01/14 06:40:23;;;;;;;246.20;97.03;;;-1.70;99.90;;;;;;5013294;28;20044;-77
2022/01/14 06:42:50;;;;;;;631.72;152.30;;;-1.70;99.90;;;;;;5012723;28;20026;-77
2022/01/14 06:45:16;;;;;;;205.05;92.32;;;-1.70;99.90;;;;;;5012772;28;20064;-77
2022/01/14 06:47:41;;;;;;;201.02;90.88;;;-1.70;99.90;;;;;;5011133;28;20046;-76
2022/01/14 06:50:07;;;;;;;378.92;116.38;;;-1.60;99.90;;;;;;5012395;28;20108;-77
2022/01/14 06:52:33;;;;;;;561.28;236.30;;;-1.60;99.90;;;;;;5027588;28;20026;-76
2022/01/14 06:54:59;;;;;;;358.30;169.55;;;-1.60;99.90;;;;;;5012452;28;20025;-77
2022/01/14 06:57:24;;;;;;;724.88;238.95;;;-1.80;99.90;;;;;;5011187;28;20471;-77
2022/01/14 06:59:50;;;;;;;313.00;129.93;;;-1.70;99.90;;;;;;5012426;28;20026;-77
2022/01/14 07:02:16;;;;;;;206.20;102.47;;;-1.80;99.90;;;;;;5012213;28;20022;-76
2022/01/14 07:04:41;;;;;;;285.17;119.03;;;-1.70;99.90;;;;;;5012094;28;20021;-78
2022/01/14 07:07:07;;;;;;;243.23;99.43;;;-1.70;99.90;;;;;;5012233;28;20058;-77
2022/01/14 07:09:34;;;;;;;540.10;151.32;;;-1.60;99.90;;;;;;5010703;28;20127;-77
2022/01/14 07:12:02;;;;;;;489.15;148.07;;;-1.70;99.90;;;;;;5012229;28;20030;-77
2022/01/14 07:14:29;;;;;;;524.92;144.25;;;-1.80;99.90;;;;;;5010888;28;20027;-77
2022/01/14 07:16:55;;;;;;;579.20;151.32;;;-1.80;99.90;;;;;;5010828;28;20498;-77
2022/01/14 07:19:22;;;;;;;330.77;111.82;;;-1.80;99.90;;;;;;4999059;28;20499;-77
2022/01/14 07:21:48;;;;;;;193.82;87.70;;;-1.70;99.90;;;;;;5012485;28;20104;-75
2022/01/14 07:24:14;;;;;;;202.85;90.25;;;-1.70;99.90;;;;;;5012131;28;20487;-76
2022/01/14 07:26:41;;;;;;;424.92;129.75;;;-1.60;99.90;;;;;;5011142;28;20034;-76
2022/01/14 07:29:06;;;;;;;370.85;118.78;;;-1.60;99.90;;;;;;5010216;28;20061;-74
2022/01/14 07:31:32;;;;;;;280.27;106.38;;;-1.70;99.90;;;;;;5011393;28;20050;-75
2022/01/14 07:33:58;;;;;;;354.52;112.60;;;-1.70;99.90;;;;;;5011330;28;20030;-74
2022/01/14 07:36:24;;;;;;;317.95;104.53;;;-1.60;99.90;;;;;;5011504;28;21733;-74
2022/01/14 07:38:50;;;;;;;267.95;101.18;;;-1.50;99.90;;;;;;5026409;28;20111;-75
2022/01/14 07:41:16;;;;;;;349.67;114.00;;;-1.60;99.90;;;;;;5011564;28;20610;-75
2022/01/14 07:43:46;;;;;;;196.10;87.53;;;-1.60;99.90;;;;;;5010507;28;20075;-75
2022/01/14 07:46:12;;;;;;;417.02;117.38;;;-1.50;99.90;;;;;;5018683;28;20023;-75
2022/01/14 07:48:37;;;;;;;342.55;108.18;;;-1.50;99.90;;;;;;5010101;28;20018;-75
2022/01/14 07:51:03;;;;;;;513.17;134.90;;;-1.50;99.90;;;;;;5012415;28;20108;-74
2022/01/14 07:53:29;;;;;;;345.33;111.65;;;-1.50;99.90;;;;;;5011633;28;20030;-74
2022/01/14 07:55:55;;;;;;;385.58;117.93;;;-1.40;99.90;;;;;;5019766;28;20022;-74
2022/01/14 07:58:21;;;;;;;282.15;101.35;;;-1.60;99.90;;;;;;5014305;28;20026;-73
2022/01/14 08:00:46;;;;;;;426.33;113.50;;;-1.50;99.90;;;;;;5009933;28;20029;-75
2022/01/14 08:03:12;;;;;;;467.35;130.98;;;-1.50;99.90;;;;;;5016411;28;20501;-77
2022/01/14 08:05:38;;;;;;;177.02;82.32;;;-1.50;99.90;;;;;;5017657;28;20022;-77
2022/01/14 08:08:05;;;;;;;335.50;113.13;;;-1.30;99.90;;;;;;5021292;28;20054;-75
2022/01/14 08:10:31;;;;;;;332.40;103.97;;;-1.40;99.90;;;;;;5013469;28;20418;-77
2022/01/14 08:12:58;;;;;;;288.17;106.22;;;-1.50;99.90;;;;;;5021118;28;20026;-77
2022/01/14 08:15:24;;;;;;;217.18;95.13;;;-1.50;99.90;;;;;;5021217;28;20029;-77
2022/01/14 08:17:49;;;;;;;468.20;135.18;;;-1.50;99.90;;;;;;5019859;28;20018;-76
2022/01/14 08:20:15;;;;;;;467.55;130.73;;;-1.50;99.90;;;;;;5015881;28;20403;-76
2022/01/14 08:22:40;;;;;;;216.30;93.35;;;-1.60;99.90;;;;;;5027400;28;20471;-76
2022/01/14 08:25:07;;;;;;;444.02;131.75;;;-1.50;99.90;;;;;;5023513;28;20151;-76
2022/01/14 08:27:32;;;;;;;467.70;148.95;;;-1.60;99.90;;;;;;5024595;28;20021;-77
2022/01/14 08:29:58;;;;;;;255.82;100.20;;;-1.50;99.90;;;;;;5021439;28;20033;-76
2022/01/14 08:32:23;;;;;;;204.50;89.18;;;-1.40;99.90;;;;;;5021842;28;20029;-76
2022/01/14 08:34:50;;;;;;;213.02;86.07;;;-1.50;99.90;;;;;;5019937;28;20025;-76
2022/01/14 08:37:15;;;;;;;325.25;105.97;;;-1.50;99.90;;;;;;5023520;28;20110;-76
2022/01/14 08:39:41;;;;;;;299.88;103.32;;;-1.50;99.90;;;;;;5015962;28;20042;-77
2022/01/14 08:42:09;;;;;;;349.98;112.05;;;-1.70;99.90;;;;;;5021315;28;20026;-78
2022/01/14 08:44:36;;;;;;;187.50;83.93;;;-1.50;99.90;;;;;;5008865;28;20114;-75
2022/01/14 08:47:05;;;;;;;508.65;141.68;;;-1.50;99.90;;;;;;5035021;28;20519;-76
2022/01/14 08:49:31;;;;;;;561.13;142.65;;;-1.50;99.90;;;;;;5018741;28;20510;-75
2022/01/14 08:51:56;;;;;;;556.08;140.45;;;-1.50;99.90;;;;;;5024857;28;20105;-75
2022/01/14 08:54:22;;;;;;;483.30;132.75;;;-1.60;99.90;;;;;;5027371;28;20391;-75
2022/01/14 08:56:48;;;;;;;192.70;87.32;;;-1.70;99.90;;;;;;5021213;28;20394;-76
2022/01/14 08:59:16;;;;;;;435.08;128.25;;;-1.60;99.90;;;;;;5026731;28;20025;-74
2022/01/14 09:01:42;;;;;;;443.27;128.25;;;-1.50;99.90;;;;;;5029173;28;20013;-76
2022/01/14 09:04:08;;;;;;;369.65;115.60;;;-1.50;99.90;;;;;;5038323;28;20126;-75
2022/01/14 09:06:33;;;;;;;378.45;113.47;;;-1.40;99.90;;;;;;5019522;28;20029;-75
2022/01/14 09:08:59;;;;;;;698.38;148.30;;;-1.50;99.90;;;;;;5024627;28;20252;-73
2022/01/14 09:11:24;;;;;;;421.10;120.05;;;-1.60;99.90;;;;;;5023640;28;20022;-73
2022/01/14 09:13:50;;;;;;;504.40;131.82;;;-1.60;99.90;;;;;;5024239;28;20487;-73
2022/01/14 09:16:18;;;;;;;432.83;121.93;;;-1.60;99.90;;;;;;5024334;28;20028;-73
2022/01/14 09:18:44;;;;;;;482.73;129.98;;;-1.60;99.90;;;;;;5023473;28;20053;-73
2022/01/14 09:21:09;;;;;;;363.58;114.10;;;-1.60;99.90;;;;;;5022031;28;20049;-73
2022/01/14 09:23:37;;;;;;;461.65;123.10;;;-1.60;99.90;;;;;;5022674;28;20018;-73
2022/01/14 09:26:02;;;;;;;303.48;106.03;;;-1.60;99.90;;;;;;5023716;28;20037;-73
2022/01/14 09:28:28;;;;;;;433.95;123.40;;;-1.60;99.90;;;;;;5045497;28;20418;-73
2022/01/14 09:30:54;;;;;;;478.90;130.23;;;-1.50;99.90;;;;;;5030358;28;20026;-73
2022/01/14 09:33:20;;;;;;;225.10;90.15;;;-1.50;99.90;;;;;;5028341;28;20037;-72
2022/01/14 09:35:46;;;;;;;430.05;121.22;;;-1.40;99.90;;;;;;5029176;28;20021;-73
2022/01/14 09:38:12;;;;;;;499.23;127.75;;;-1.30;99.90;;;;;;5022343;28;20392;-73
2022/01/14 09:40:42;;;;;;;423.25;115.32;;;-1.40;99.90;;;;;;5026250;28;20041;-73
2022/01/14 09:43:11;;;;;;;380.67;113.80;;;-1.50;99.90;;;;;;5022895;28;20025;-73
2022/01/14 09:45:37;;;;;;;327.23;105.97;;;-1.40;99.90;;;;;;5023907;28;20017;-73
2022/01/14 09:48:03;;;;;;;352.83;110.00;;;-1.40;99.90;;;;;;5024232;28;20030;-72
2022/01/14 09:50:29;;;;;;;250.45;93.13;;;-1.40;99.90;;;;;;5032003;28;20515;-74
2022/01/14 09:52:54;;;;;;;300.88;104.63;;;-1.30;99.90;;;;;;5029588;28;20035;-74
2022/01/14 09:55:21;;;;;;;276.90;100.00;;;-1.10;99.90;;;;;;5029974;28;20471;-73
2022/01/14 09:57:48;;;;;;;186.35;83.40;;;-1.10;99.90;;;;;;5027582;28;20033;-73
2022/01/14 10:00:14;;;;;;;299.55;106.13;;;-1.00;99.90;;;;;;5038698;28;20026;-75
2022/01/14 10:02:43;;;;;;;236.95;93.80;;;-1.00;99.90;;;;;;5026525;28;20480;-74
2022/01/14 10:05:29;;;;;;;288.52;99.82;;;-1.10;99.90;;;;;;5029611;28;20399;-74
2022/01/14 10:08:21;;;;;;;425.67;121.57;;;-1.00;99.90;;;;;;5032272;28;20026;-75
2022/01/14 10:10:56;;;;;;;259.63;98.47;;;-1.10;99.90;;;;;;5017817;28;20026;-75
2022/01/14 10:13:24;;;;;;;378.80;113.90;;;-1.00;99.90;;;;;;5033193;28;20014;-72
2022/01/14 10:15:53;;;;;;;211.73;87.15;;;-0.90;99.90;;;;;;5024281;28;20037;-74
2022/01/14 10:18:21;;;;;;;200.95;88.45;;;-0.90;99.90;;;;;;5005112;28;20096;-74
2022/01/14 10:20:48;;;;;;;173.77;81.32;;;-0.80;99.90;;;;;;4999358;28;20464;-75
2022/01/14 10:23:15;;;;;;;174.18;79.65;;;-0.70;99.90;;;;;;5027776;28;20026;-75
2022/01/14 10:25:53;;;;;;;187.07;85.65;;;-0.60;99.90;;;;;;5021080;28;20476;-75
2022/01/14 10:28:20;;;;;;;225.68;91.70;;;-0.60;99.90;;;;;;5015681;28;20029;-75
2022/01/14 10:30:48;;;;;;;160.05;75.25;;;-0.60;99.90;;;;;;5025559;28;20034;-74
2022/01/14 10:33:17;;;;;;;259.17;97.47;;;-0.70;99.90;;;;;;5018828;28;20021;-75
2022/01/14 10:35:46;;;;;;;272.27;97.05;;;-0.70;99.90;;;;;;5017770;28;20022;-75
2022/01/14 10:38:17;;;;;;;169.98;72.70;;;-0.80;99.90;;;;;;5019952;28;20061;-74
2022/01/14 10:41:06;;;;;;;215.00;83.90;;;-0.90;99.90;;;;;;5024746;28;20074;-75
2022/01/14 10:43:35;;;;;;;285.98;88.18;;;-1.00;99.90;;;;;;5014076;28;20018;-74
2022/01/14 10:46:06;;;;;;;158.68;71.45;;;-0.90;99.90;;;;;;5016693;28;20034;-74
2022/01/14 10:48:41;;;;;;;243.93;89.57;;;-1.00;99.90;;;;;;5019918;28;20022;-74
2022/01/14 10:51:10;;;;;;;320.50;100.23;;;-0.90;99.90;;;;;;5021520;28;20052;-75
2022/01/14 10:53:48;;;;;;;265.27;95.13;;;-1.00;99.90;;;;;;5026626;28;20292;-74
2022/01/14 10:56:25;;;;;;;270.58;95.65;;;-0.90;99.90;;;;;;5022376;28;20044;-74
2022/01/14 10:58:56;;;;;;;230.48;88.85;;;-0.90;99.90;;;;;;5026562;28;20385;-75
2022/01/14 11:01:24;;;;;;;295.90;98.55;;;-0.80;99.90;;;;;;5025433;28;20017;-74
2022/01/14 11:03:56;;;;;;;293.67;98.07;;;-0.80;99.90;;;;;;5028608;28;20033;-74
2022/01/14 11:06:28;;;;;;;282.48;99.47;;;-0.70;99.90;;;;;;5028344;28;20021;-74
2022/01/14 11:09:05;;;;;;;171.57;78.07;;;-0.80;99.90;;;;;;5027193;28;20025;-74
2022/01/14 11:11:34;;;;;;;131.40;66.97;;;-0.60;99.90;;;;;;5013746;28;20030;-73
2022/01/14 11:14:00;;;;;;;228.32;82.93;;;-0.50;99.90;;;;;;5022496;28;20029;-74
2022/01/14 11:16:26;;;;;;;259.70;89.22;;;-0.60;99.90;;;;;;5027727;28;20364;-74
2022/01/14 11:18:52;;;;;;;267.63;91.28;;;-0.70;99.90;;;;;;5019384;28;20026;-74
2022/01/14 11:24:04;;;;;;;330.88;101.93;;;-0.70;99.90;;;;;;5011292;28;20029;-73
2022/01/14 11:26:34;;;;;;;247.70;89.93;;;-0.50;99.90;;;;;;5011449;28;20080;-75
2022/01/14 11:29:12;;;;;;;250.52;95.55;;;-0.60;99.90;;;;;;5010916;28;20395;-73
2022/01/14 11:31:40;;;;;;;166.18;76.32;;;-0.60;99.90;;;;;;5006552;28;20076;-75
2022/01/14 11:34:27;;;;;;;234.93;94.18;;;-0.40;99.90;;;;;;5014729;28;20037;-75
2022/01/14 11:36:59;;;;;;;220.20;90.50;;;-0.50;99.90;;;;;;5026817;28;20033;-74
2022/01/14 11:39:27;;;;;;;203.80;87.78;;;-0.40;99.90;;;;;;5014888;28;20022;-73
2022/01/14 11:41:58;;;;;;;242.95;97.05;;;-0.40;99.90;;;;;;5013340;28;20022;-74
2022/01/14 11:45:02;;;;;;;250.10;97.00;;;-0.40;99.90;;;;;;5024383;28;20101;-73
2022/01/14 11:47:29;;;;;;;216.77;89.65;;;-0.40;99.90;;;;;;5012303;28;20017;-74
2022/01/14 11:49:56;;;;;;;197.77;84.18;;;-0.40;99.90;;;;;;5043721;28;20110;-74
2022/01/14 11:52:40;;;;;;;213.23;83.88;;;-0.30;99.90;;;;;;5029840;28;20124;-73
2022/01/14 11:55:31;;;;;;;199.02;80.85;;;-0.30;99.90;;;;;;5022150;28;20514;-74
2022/01/14 11:57:59;;;;;;;285.38;92.28;;;-0.40;99.90;;;;;;5027725;28;20025;-74
2022/01/14 12:00:27;;;;;;;218.32;84.38;;;-0.50;99.90;;;;;;5024834;28;20018;-73
2022/01/14 12:03:25;;;;;;;273.90;90.30;;;-0.50;99.90;;;;;;5029361;28;20021;-73
2022/01/14 12:05:56;;;;;;;252.60;91.18;;;-0.30;99.90;;;;;;5021647;28;20071;-74
2022/01/14 12:08:35;;;;;;;220.45;83.53;;;-0.40;99.90;;;;;;5017970;28;20018;-74
2022/01/14 12:11:19;;;;;;;227.77;85.18;;;-0.40;99.90;;;;;;5014286;28;20065;-73
2022/01/14 12:13:58;;;;;;;237.30;92.35;;;-0.50;99.90;;;;;;5017433;28;20041;-74
2022/01/14 12:18:56;;;;;;;227.98;87.18;;;-0.40;99.90;;;;;;5008659;28;20026;-74
2022/01/14 12:21:37;;;;;;;255.57;89.70;;;-0.40;99.90;;;;;;5011826;28;20032;-73
2022/01/14 12:24:27;;;;;;;272.75;93.57;;;-0.30;99.90;;;;;;5010723;28;20022;-73
2022/01/14 12:26:52;;;;;;;241.20;88.03;;;-0.40;99.90;;;;;;5021103;28;20022;-73
2022/01/14 12:29:20;;;;;;;195.15;81.70;;;-0.40;99.90;;;;;;5026615;28;20022;-73
2022/01/14 12:32:05;;;;;;;268.90;91.88;;;-0.30;99.90;;;;;;5018333;28;20033;-75
2022/01/14 12:34:33;;;;;;;288.88;97.22;;;-0.40;99.90;;;;;;5005932;28;20109;-74
2022/01/14 12:36:59;;;;;;;274.88;97.13;;;-0.40;99.90;;;;;;5026266;28;20450;-73
2022/01/14 12:39:25;;;;;;;366.98;105.10;;;-0.30;99.90;;;;;;5024548;28;20045;-74
2022/01/14 12:41:55;;;;;;;158.20;74.60;;;-0.30;99.90;;;;;;5028295;28;20034;-74